Time,TemperatureF,DewpointF,PressureIn,WindDirection,WindDirectionDegrees,WindSpeedMPH,WindSpeedGustMPH,Humidity,HourlyPrecipIn,Conditions,Clouds,dailyrainin,SoftwareType,DateUTC
2013-01-19 00:02:00,29.0,29.0,30.27,ESE,121,0.0,0.0,99,0.00,,,0.00,weatherlink.com 1.10,2013-01-19 08:02:00,
2013-01-19 00:17:00,29.0,29.0,30.27,ESE,121,0.0,0.0,99,0.00,,,0.00,weatherlink.com 1.10,2013-01-19 08:17:00,
2013-01-19 00:32:00,28.9,29.0,30.27,ESE,121,0.0,0.0,99,0.00,,,0.00,weatherlink.com 1.10,2013-01-19 08:32:00,
2013-01-19 00:47:00,28.9,29.0,30.27,ESE,121,0.0,0.0,99,0.00,,,0.00,weatherlink.com 1.10,2013-01-19 08:47:00,
2013-01-19 01:02:00,28.9,29.0,30.27,ESE,121,0.0,0.0,99,0.00,,,0.00,weatherlink.com 1.10,2013-01-19 09:02:00,
2013-01-19 01:17:00,28.7,29.0,30.27,ESE,121,0.0,0.0,99,0.00,,,0.00,weatherlink.com 1.10,2013-01-19 09:17:00,
2013-01-19 01:32:00,28.5,28.0,30.28,ESE,121,0.0,0.0,99,0.00,,,0.00,weatherlink.com 1.10,2013-01-19 09:32:00,
2013-01-19 01:47:00,28.6,28.0,30.28,ESE,121,0.0,0.0,99,0.00,,,0.00,weatherlink.com 1.10,2013-01-19 09:47:00,
2013-01-19 02:03:00,28.5,28.0,30.29,ESE,121,0.0,0.0,99,0.00,,,0.00,weatherlink.com 1.10,2013-01-19 10:03:00,
2013-01-19 02:18:00,28.3,28.0,30.29,ESE,121,0.0,0.0,99,0.00,,,0.00,weatherlink.com 1.10,2013-01-19 10:18:00,
2013-01-19 02:33:00,28.3,28.0,30.29,ESE,121,0.0,0.0,99,0.00,,,0.00,weatherlink.com 1.10,2013-01-19 10:33:00,
2013-01-19 02:48:00,28.1,28.0,30.30,ESE,121,0.0,0.0,99,0.00,,,0.00,weatherlink.com 1.10,2013-01-19 10:48:00,
2013-01-19 03:03:00,28.1,28.0,30.30,SSE,166,0.0,0.0,99,0.00,,,0.00,weatherlink.com 1.10,2013-01-19 11:03:00,
2013-01-19 04:48:00,27.0,27.0,30.31,SSE,166,0.0,0.0,99,0.00,,,0.00,weatherlink.com 1.10,2013-01-19 12:48:00,
2013-01-19 05:03:00,27.0,27.0,30.31,SSE,166,0.0,0.0,99,0.00,,,0.00,weatherlink.com 1.10,2013-01-19 13:03:00,
2013-01-19 05:18:00,27.1,27.0,30.32,SSE,166,0.0,0.0,99,0.00,,,0.00,weatherlink.com 1.10,2013-01-19 13:18:00,
2013-01-19 05:33:00,26.9,27.0,30.32,SSE,166,0.0,0.0,99,0.00,,,0.00,weatherlink.com 1.10,2013-01-19 13:33:00,
2013-01-19 05:48:00,26.6,26.0,30.32,SSE,166,0.0,0.0,99,0.00,,,0.00,weatherlink.com 1.10,2013-01-19 13:48:00,
2013-01-19 06:03:00,26.5,26.0,30.32,SSE,166,0.0,0.0,99,0.00,,,0.00,weatherlink.com 1.10,2013-01-19 14:03:00,
2013-01-19 06:18:00,26.6,26.0,30.32,SSE,166,0.0,0.0,99,0.00,,,0.00,weatherlink.com 1.10,2013-01-19 14:18:00,
2013-01-19 06:33:00,26.9,27.0,30.33,SSE,166,0.0,0.0,100,0.00,,,0.00,weatherlink.com 1.10,2013-01-19 14:33:00,
2013-01-19 06:48:00,26.8,27.0,30.33,SSE,166,0.0,0.0,99,0.00,,,0.00,weatherlink.com 1.10,2013-01-19 14:48:00,
2013-01-19 07:03:00,26.5,26.0,30.33,SSE,166,0.0,0.0,99,0.00,,,0.00,weatherlink.com 1.10,2013-01-19 15:03:00,
2013-01-19 07:18:00,26.3,26.0,30.34,SSE,166,0.0,0.0,99,0.00,,,0.00,weatherlink.com 1.10,2013-01-19 15:18:00,
2013-01-19 07:33:00,26.1,26.0,30.34,SSE,166,0.0,0.0,99,0.00,,,0.00,weatherlink.com 1.10,2013-01-19 15:33:00,
2013-01-19 07:48:00,26.0,26.0,30.34,SSE,166,0.0,0.0,99,0.00,,,0.00,weatherlink.com 1.10,2013-01-19 15:48:00,
2013-01-19 08:03:00,25.9,26.0,30.34,SSE,166,0.0,0.0,99,0.00,,,0.00,weatherlink.com 1.10,2013-01-19 16:03:00,
2013-01-19 08:18:00,26.2,26.0,30.34,East,93,0.0,0.0,99,0.00,,,0.00,weatherlink.com 1.10,2013-01-19 16:18:00,
2013-01-19 08:33:00,26.5,26.0,30.34,East,93,0.0,0.0,99,0.00,,,0.00,weatherlink.com 1.10,2013-01-19 16:33:00,
2013-01-19 08:48:00,26.7,27.0,30.35,East,93,0.0,0.0,99,0.00,,,0.00,weatherlink.com 1.10,2013-01-19 16:48:00,
2013-01-19 09:03:00,26.9,27.0,30.35,East,93,0.0,0.0,99,0.00,,,0.00,weatherlink.com 1.10,2013-01-19 17:03:00,
2013-01-19 09:18:00,27.2,27.0,30.36,East,93,0.0,0.0,99,0.00,,,0.00,weatherlink.com 1.10,2013-01-19 17:18:00,
2013-01-19 09:33:00,27.7,28.0,30.36,East,93,0.0,0.0,100,0.00,,,0.00,weatherlink.com 1.10,2013-01-19 17:33:00,
2013-01-19 09:48:00,28.8,29.0,30.36,East,93,0.0,0.0,100,0.00,,,0.00,weatherlink.com 1.10,2013-01-19 17:48:00,
2013-01-19 10:03:00,30.0,30.0,30.36,East,93,0.0,0.0,100,0.00,,,0.00,weatherlink.com 1.10,2013-01-19 18:03:00,
2013-01-19 10:18:00,31.1,31.0,30.36,East,93,0.0,0.0,100,0.00,,,0.00,weatherlink.com 1.10,2013-01-19 18:18:00,
2013-01-19 10:34:00,32.0,32.0,30.35,East,93,0.0,0.0,100,0.00,,,0.00,weatherlink.com 1.10,2013-01-19 18:34:00,
2013-01-19 10:49:00,32.9,33.0,30.34,East,93,0.0,0.0,100,0.00,,,0.00,weatherlink.com 1.10,2013-01-19 18:49:00,
2013-01-19 11:04:00,35.3,35.0,30.34,East,93,0.0,0.0,100,0.00,,,0.00,weatherlink.com 1.10,2013-01-19 19:04:00,
2013-01-19 11:34:00,39.8,40.0,30.32,East,94,0.0,0.0,100,0.00,,,0.00,weatherlink.com 1.10,2013-01-19 19:34:00,
2013-01-19 12:19:00,44.2,42.0,30.29,SE,143,0.0,1.0,90,0.00,,,0.00,weatherlink.com 1.10,2013-01-19 20:19:00,
2013-01-19 12:34:00,46.0,42.0,30.29,SE,143,0.0,0.0,87,0.00,,,0.00,weatherlink.com 1.10,2013-01-19 20:34:00,
2013-01-19 12:49:00,47.9,44.0,30.28,SE,143,0.0,0.0,85,0.00,,,0.00,weatherlink.com 1.10,2013-01-19 20:49:00,
2013-01-19 13:04:00,49.2,43.0,30.27,SE,144,0.0,0.0,80,0.00,,,0.00,weatherlink.com 1.10,2013-01-19 21:04:00,
2013-01-19 13:19:00,50.8,45.0,30.26,SE,144,1.0,1.0,79,0.00,,,0.00,weatherlink.com 1.10,2013-01-19 21:19:00,
2013-01-19 13:34:00,51.4,44.0,30.26,SE,144,0.0,0.0,77,0.00,,,0.00,weatherlink.com 1.10,2013-01-19 21:34:00,
2013-01-19 13:49:00,52.5,45.0,30.25,SE,144,0.0,0.0,76,0.00,,,0.00,weatherlink.com 1.10,2013-01-19 21:49:00,
2013-01-19 14:04:00,53.7,46.0,30.25,SE,144,0.0,0.0,74,0.00,,,0.00,weatherlink.com 1.10,2013-01-19 22:04:00,
2013-01-19 14:34:00,53.7,45.0,30.24,SE,144,0.0,0.0,73,0.00,,,0.00,weatherlink.com 1.10,2013-01-19 22:34:00,
2013-01-19 14:49:00,52.2,46.0,30.24,SE,144,0.0,0.0,79,0.00,,,0.00,weatherlink.com 1.10,2013-01-19 22:49:00,
2013-01-19 15:05:00,51.1,45.0,30.24,SE,144,0.0,0.0,79,0.00,,,0.00,weatherlink.com 1.10,2013-01-19 23:05:00,
2013-01-19 15:20:00,50.6,45.0,30.24,SE,144,0.0,0.0,81,0.00,,,0.00,weatherlink.com 1.10,2013-01-19 23:20:00,
2013-01-19 15:35:00,50.3,45.0,30.24,SE,144,0.0,0.0,82,0.00,,,0.00,weatherlink.com 1.10,2013-01-19 23:35:00,
2013-01-19 16:05:00,48.4,45.0,30.24,SE,144,0.0,0.0,87,0.00,,,0.00,weatherlink.com 1.10,2013-01-20 00:05:00,
2013-01-19 16:20:00,47.4,44.0,30.24,SE,144,0.0,0.0,89,0.00,,,0.00,weatherlink.com 1.10,2013-01-20 00:20:00,
2013-01-19 16:35:00,46.0,44.0,30.24,SE,144,0.0,0.0,91,0.00,,,0.00,weatherlink.com 1.10,2013-01-20 00:35:00,
2013-01-19 16:50:00,44.3,42.0,30.25,SE,145,0.0,0.0,92,0.00,,,0.00,weatherlink.com 1.10,2013-01-20 00:50:00,
2013-01-19 17:05:00,42.7,41.0,30.25,SE,144,0.0,0.0,93,0.00,,,0.00,weatherlink.com 1.10,2013-01-20 01:05:00,
2013-01-19 17:35:00,40.2,39.0,30.26,SE,145,0.0,0.0,95,0.00,,,0.00,weatherlink.com 1.10,2013-01-20 01:35:00,
2013-01-19 17:50:00,39.0,38.0,30.27,SE,144,0.0,0.0,95,0.00,,,0.00,weatherlink.com 1.10,2013-01-20 01:50:00,
2013-01-19 18:05:00,38.1,37.0,30.27,SE,145,0.0,0.0,96,0.00,,,0.00,weatherlink.com 1.10,2013-01-20 02:05:00,
2013-01-19 18:20:00,37.2,37.0,30.27,SE,145,0.0,0.0,97,0.00,,,0.00,weatherlink.com 1.10,2013-01-20 02:20:00,
2013-01-19 18:35:00,36.4,36.0,30.27,SSW,209,0.0,0.0,97,0.00,,,0.00,weatherlink.com 1.10,2013-01-20 02:35:00,
2013-01-19 19:05:00,35.1,35.0,30.28,SSW,209,0.0,0.0,98,0.00,,,0.00,weatherlink.com 1.10,2013-01-20 03:05:00,
2013-01-19 19:20:00,34.4,34.0,30.29,SSW,209,0.0,0.0,98,0.00,,,0.00,weatherlink.com 1.10,2013-01-20 03:20:00,
2013-01-19 19:50:00,33.4,33.0,30.29,SSW,209,0.0,0.0,98,0.00,,,0.00,weatherlink.com 1.10,2013-01-20 03:50:00,
2013-01-19 20:05:00,33.0,33.0,30.30,SSW,209,0.0,0.0,98,0.00,,,0.00,weatherlink.com 1.10,2013-01-20 04:05:00,
2013-01-19 20:20:00,32.4,32.0,30.30,SSW,209,0.0,0.0,98,0.00,,,0.00,weatherlink.com 1.10,2013-01-20 04:20:00,
2013-01-19 20:35:00,31.9,31.0,30.31,SSW,209,0.0,0.0,98,0.00,,,0.00,weatherlink.com 1.10,2013-01-20 04:35:00,
2013-01-19 20:50:00,31.5,31.0,30.31,SSW,209,0.0,0.0,98,0.00,,,0.00,weatherlink.com 1.10,2013-01-20 04:50:00,
2013-01-19 21:05:00,31.0,31.0,30.31,SSW,209,0.0,0.0,99,0.00,,,0.00,weatherlink.com 1.10,2013-01-20 05:05:00,
2013-01-19 21:20:00,30.7,30.0,30.32,SSW,209,0.0,0.0,98,0.00,,,0.00,weatherlink.com 1.10,2013-01-20 05:20:00,
2013-01-19 21:35:00,30.5,30.0,30.32,SSW,209,0.0,0.0,99,0.00,,,0.00,weatherlink.com 1.10,2013-01-20 05:35:00,
2013-01-19 21:53:00,30.2,30.0,30.33,SSW,209,0.0,0.0,99,0.00,,,0.00,weatherlink.com 1.10,2013-01-20 05:53:00,
2013-01-19 22:05:00,29.8,30.0,30.33,SSW,209,0.0,0.0,99,0.00,,,0.00,weatherlink.com 1.10,2013-01-20 06:05:00,
2013-01-19 22:20:00,29.6,29.0,30.33,SSW,209,0.0,0.0,99,0.00,,,0.00,weatherlink.com 1.10,2013-01-20 06:20:00,
2013-01-19 22:35:00,29.6,29.0,30.33,SSW,209,0.0,0.0,99,0.00,,,0.00,weatherlink.com 1.10,2013-01-20 06:35:00,
2013-01-19 22:50:00,29.5,29.0,30.34,SSW,209,0.0,0.0,99,0.00,,,0.00,weatherlink.com 1.10,2013-01-20 06:50:00,
2013-01-19 23:05:00,29.3,29.0,30.34,SSW,209,0.0,0.0,99,0.00,,,0.00,weatherlink.com 1.10,2013-01-20 07:05:00,
2013-01-19 23:20:00,29.2,29.0,30.34,SSW,209,0.0,0.0,99,0.00,,,0.00,weatherlink.com 1.10,2013-01-20 07:20:00,
2013-01-19 23:35:00,29.0,29.0,30.34,SSW,209,0.0,0.0,99,0.00,,,0.00,weatherlink.com 1.10,2013-01-20 07:35:00,
2013-01-19 23:50:00,28.8,29.0,30.34,SSW,209,0.0,0.0,99,0.00,,,0.00,weatherlink.com 1.10,2013-01-20 07:50:00,